createdAt,value
2022-10-05T00:01:28.895Z,81.05
2022-10-05T00:04:08.493Z,80.98
2022-10-05T00:06:37.728Z,81.50
2022-10-05T00:09:19.380Z,80.54
2022-10-05T00:11:49.818Z,81.16
2022-10-05T00:14:29.949Z,81.70
2022-10-05T00:16:59.592Z,81.92
2022-10-05T00:19:40.947Z,82.08
2022-10-05T00:22:30.176Z,82.50
2022-10-05T00:25:04.718Z,82.62
2022-10-05T00:27:37.713Z,82.91
2022-10-05T00:30:16.323Z,83.79
2022-10-05T00:32:46.592Z,84.39
2022-10-05T00:35:18.090Z,84.72
2022-10-05T00:37:52.245Z,84.59
2022-10-05T00:40:58.769Z,84.72
2022-10-05T00:44:21.617Z,83.87
2022-10-05T00:46:59.612Z,83.77
2022-10-05T00:49:55.906Z,83.59
2022-10-05T00:52:34.233Z,83.49
2022-10-05T00:55:47.682Z,83.36
2022-10-05T00:58:22.849Z,83.44
2022-10-05T01:01:29.516Z,83.59
2022-10-05T01:04:28.992Z,83.49
2022-10-05T01:07:35.178Z,84.15
2022-10-05T01:10:40.221Z,84.35
2022-10-05T01:13:34.245Z,84.93
2022-10-05T01:16:10.897Z,85.30
2022-10-05T01:19:03.162Z,85.67
2022-10-05T01:21:44.951Z,85.44
2022-10-05T01:24:34.875Z,84.78
2022-10-05T01:27:04.285Z,84.66
2022-10-05T01:29:42.731Z,85.66
2022-10-05T01:32:43.772Z,85.50
2022-10-05T01:35:27.865Z,85.64
2022-10-05T01:38:00.839Z,85.86
2022-10-05T01:40:46.177Z,85.44
2022-10-05T01:43:31.299Z,85.27
2022-10-05T01:46:13.203Z,85.64
2022-10-05T01:49:14.297Z,85.01
2022-10-05T01:52:01.702Z,85.30
2022-10-05T01:54:56.867Z,85.84
2022-10-05T01:57:45.492Z,86.18
2022-10-05T02:00:22.277Z,85.19
2022-10-05T02:03:03.132Z,86.01
2022-10-05T02:05:42.686Z,85.67
2022-10-05T02:08:34.003Z,85.88
2022-10-05T02:11:10.230Z,86.82
2022-10-05T02:13:54.577Z,87.06
2022-10-05T02:16:45.597Z,86.13
2022-10-05T02:19:36.889Z,83.78
2022-10-05T02:22:13.331Z,84.44
2022-10-05T02:24:52.510Z,84.28
2022-10-05T02:27:28.855Z,83.74
2022-10-05T02:30:04.102Z,82.12
2022-10-05T02:32:50.977Z,81.01
2022-10-05T02:35:23.045Z,80.65
2022-10-05T02:38:23.156Z,80.78
2022-10-05T02:41:05.454Z,81.44
2022-10-05T02:44:05.272Z,80.15
2022-10-05T02:46:59.044Z,80.20
2022-10-05T02:49:55.580Z,79.72
2022-10-05T02:52:46.134Z,79.97
2022-10-05T02:55:32.201Z,80.11
2022-10-05T02:58:24.049Z,80.08
2022-10-05T03:01:08.558Z,79.86
2022-10-05T03:03:57.405Z,79.24
2022-10-05T03:06:36.947Z,77.72
2022-10-05T03:09:09.509Z,77.10
2022-10-05T03:12:07.243Z,76.27
2022-10-05T03:14:48.849Z,76.25
2022-10-05T03:17:23.740Z,75.56
2022-10-05T03:20:24.096Z,76.89
2022-10-05T03:23:02.814Z,76.42
2022-10-05T03:25:57.563Z,73.76
2022-10-05T03:28:46.421Z,72.41
2022-10-05T03:31:55.384Z,71.47
2022-10-05T03:34:38.528Z,70.92
2022-10-05T03:37:26.039Z,70.61
2022-10-05T03:40:04.835Z,71.16
2022-10-05T03:42:43.191Z,70.41
2022-10-05T03:45:30.859Z,70.06
2022-10-05T03:48:03.206Z,68.54
2022-10-05T03:50:46.127Z,69.95
2022-10-05T03:53:29.021Z,70.85
2022-10-05T03:56:06.157Z,69.23
2022-10-05T03:58:45.529Z,69.47
2022-10-05T04:01:21.053Z,70.79
2022-10-05T04:04:00.906Z,71.27
2022-10-05T04:06:42.075Z,72.03
2022-10-05T04:09:20.710Z,71.55
2022-10-05T04:11:52.408Z,71.00
2022-10-05T04:14:47.350Z,71.51
2022-10-05T04:17:23.477Z,69.58
2022-10-05T04:20:07.289Z,69.48
2022-10-05T04:22:42.175Z,68.95
2022-10-05T04:25:18.565Z,69.34
2022-10-05T04:28:04.913Z,67.58
2022-10-05T04:30:39.612Z,62.33
2022-10-05T04:33:14.864Z,59.91
2022-10-05T04:36:23.527Z,60.72
2022-10-05T04:39:25.507Z,58.57
2022-10-05T04:42:08.437Z,58.53
2022-10-05T04:45:26.055Z,55.74
2022-10-05T04:48:23.760Z,54.98
2022-10-05T04:50:57.346Z,54.38
2022-10-05T04:53:37.331Z,55.15
2022-10-05T04:56:20.807Z,52.39
2022-10-05T04:59:30.755Z,53.17
2022-10-05T05:02:18.390Z,54.58
2022-10-05T05:05:16.912Z,52.30
2022-10-05T05:08:03.450Z,52.04
2022-10-05T05:10:55.081Z,53.63
2022-10-05T05:13:45.316Z,51.64
2022-10-05T05:16:37.209Z,52.24
2022-10-05T05:19:24.243Z,54.12
2022-10-05T05:22:09.083Z,53.33
2022-10-05T05:24:58.406Z,52.79
2022-10-05T05:27:50.618Z,52.50
2022-10-05T05:30:52.407Z,52.21
2022-10-05T05:33:28.390Z,51.75
2022-10-05T05:36:36.168Z,50.42
2022-10-05T05:39:06.025Z,51.34
2022-10-05T05:42:00.101Z,52.18
2022-10-05T05:44:42.721Z,52.10
2022-10-05T05:47:22.130Z,53.10
2022-10-05T05:50:19.715Z,53.59
2022-10-05T05:53:25.186Z,51.61
2022-10-05T05:56:12.738Z,50.78
2022-10-05T05:58:48.642Z,50.53
2022-10-05T06:01:34.179Z,50.07
2022-10-05T06:04:18.465Z,51.71
2022-10-05T06:06:52.524Z,51.27
2022-10-05T06:09:34.273Z,51.77
2022-10-05T06:12:35.954Z,46.55
2022-10-05T06:15:13.198Z,45.37
2022-10-05T06:17:51.185Z,42.76
2022-10-05T06:20:30.744Z,46.24
2022-10-05T06:23:04.862Z,46.23
2022-10-05T06:25:51.126Z,42.71
2022-10-05T06:28:20.795Z,43.78
2022-10-05T06:31:22.539Z,44.98
2022-10-05T06:34:05.131Z,45.11
2022-10-05T06:36:54.398Z,45.73
2022-10-05T06:39:45.140Z,44.21
2022-10-05T06:42:39.087Z,45.41
2022-10-05T06:46:00.236Z,40.41
2022-10-05T06:48:59.728Z,40.38
2022-10-05T06:51:53.090Z,42.08
2022-10-05T06:55:09.534Z,44.13
2022-10-05T06:58:08.879Z,42.65
2022-10-05T07:00:58.724Z,43.70
2022-10-05T07:03:42.890Z,45.30
2022-10-05T07:06:21.870Z,42.33
2022-10-05T07:09:19.211Z,40.83
2022-10-05T07:12:00.876Z,43.71
2022-10-05T07:15:02.968Z,45.68
2022-10-05T07:17:46.682Z,45.83
2022-10-05T07:20:26.805Z,44.75
2022-10-05T07:23:08.388Z,44.63
2022-10-05T07:25:47.743Z,44.95
2022-10-05T07:28:26.651Z,44.25
2022-10-05T07:31:23.157Z,44.31
2022-10-05T07:34:23.448Z,43.12
2022-10-05T07:37:14.384Z,43.34
2022-10-05T07:40:06.784Z,41.31
2022-10-05T07:42:59.671Z,40.39
2022-10-05T07:45:33.205Z,39.50
2022-10-05T07:48:23.901Z,41.09
2022-10-05T07:51:19.559Z,41.20
2022-10-05T07:54:09.093Z,39.12
2022-10-05T07:56:45.278Z,40.56
2022-10-05T07:59:47.028Z,38.50
2022-10-05T08:02:45.576Z,39.15
2022-10-05T08:05:37.069Z,38.74
2022-10-05T08:08:34.035Z,40.36
2022-10-05T08:11:18.667Z,38.53
2022-10-05T08:13:51.062Z,38.65
2022-10-05T08:16:20.802Z,39.46
2022-10-05T08:19:07.934Z,38.70
2022-10-05T08:21:42.941Z,37.36
2022-10-05T08:24:45.885Z,37.54
2022-10-05T08:27:24.860Z,37.31
2022-10-05T08:30:12.021Z,37.84
2022-10-05T08:33:04.073Z,38.01
2022-10-05T08:35:45.017Z,37.19
2022-10-05T08:38:26.390Z,38.40
2022-10-05T08:41:37.763Z,37.21
2022-10-05T08:44:43.036Z,36.88
2022-10-05T08:47:22.920Z,37.42
2022-10-05T08:50:19.323Z,36.52
2022-10-05T08:53:32.056Z,36.02
2022-10-05T08:56:00.804Z,37.13
2022-10-05T08:59:17.762Z,37.84
2022-10-05T09:02:11.618Z,37.54
2022-10-05T09:04:49.912Z,37.82
2022-10-05T09:07:23.418Z,38.40
2022-10-05T09:10:20.332Z,38.87
2022-10-05T09:13:12.619Z,39.08
2022-10-05T09:16:06.100Z,39.63
2022-10-05T09:18:53.804Z,39.89
2022-10-05T09:21:43.677Z,40.19
2022-10-05T09:24:28.005Z,40.11
2022-10-05T09:27:17.883Z,40.72
2022-10-05T09:30:14.363Z,39.99
2022-10-05T09:33:10.615Z,39.43
2022-10-05T09:36:01.506Z,39.32
2022-10-05T09:39:06.945Z,40.12
2022-10-05T09:42:04.888Z,37.91
2022-10-05T09:44:43.296Z,38.72
2022-10-05T09:47:46.275Z,38.70
2022-10-05T09:50:42.035Z,39.86
2022-10-05T09:53:41.532Z,38.56
2022-10-05T09:56:20.184Z,38.19
2022-10-05T09:59:04.837Z,37.90
2022-10-05T10:01:55.628Z,38.00
2022-10-05T10:05:15.673Z,38.64
2022-10-05T10:08:05.826Z,38.43
2022-10-05T10:10:59.317Z,38.82
2022-10-05T10:14:01.294Z,36.65
2022-10-05T10:16:45.122Z,37.55
2022-10-05T10:19:49.168Z,37.71
2022-10-05T10:22:28.588Z,37.52
2022-10-05T10:25:25.518Z,38.07
2022-10-05T10:28:14.611Z,37.30
2022-10-05T10:31:02.161Z,37.28
2022-10-05T10:33:58.352Z,37.36
2022-10-05T10:37:07.394Z,37.78
2022-10-05T10:40:00.421Z,36.62
2022-10-05T10:42:44.481Z,37.44
2022-10-05T10:45:50.937Z,36.93
2022-10-05T10:48:32.644Z,36.95
2022-10-05T10:51:10.592Z,36.87
2022-10-05T10:54:23.843Z,37.07
2022-10-05T10:57:16.418Z,37.32
2022-10-05T11:00:07.737Z,37.32
2022-10-05T11:02:51.399Z,36.84
2022-10-05T11:05:39.518Z,37.66
2022-10-05T11:08:26.776Z,37.87
2022-10-05T11:11:24.186Z,38.15
2022-10-05T11:14:12.838Z,38.08
2022-10-05T11:17:00.238Z,39.03
2022-10-05T11:20:03.747Z,38.42
2022-10-05T11:23:19.582Z,39.49
2022-10-05T11:26:06.623Z,39.11
2022-10-05T11:28:38.719Z,40.47
2022-10-05T11:31:27.241Z,39.93
2022-10-05T11:33:56.435Z,39.11
2022-10-05T11:37:02.098Z,39.20
2022-10-05T11:39:40.074Z,39.14
2022-10-05T11:42:28.730Z,38.85
2022-10-05T11:45:27.115Z,38.98
2022-10-05T11:48:02.278Z,39.13
2022-10-05T11:50:59.393Z,38.71
2022-10-05T11:53:42.927Z,39.12
2022-10-05T11:59:06.194Z,39.80
2022-10-05T12:01:51.299Z,39.68
2022-10-05T12:05:09.125Z,40.48
2022-10-05T12:07:56.125Z,41.33
2022-10-05T12:10:44.686Z,41.73
2022-10-05T12:13:45.516Z,41.68
2022-10-05T12:16:33.815Z,42.63
2022-10-05T12:19:29.362Z,42.73
2022-10-05T12:22:18.986Z,43.33
2022-10-05T12:25:06.440Z,42.60
2022-10-05T12:27:47.207Z,42.43
2022-10-05T12:30:33.972Z,43.25
2022-10-05T12:33:25.093Z,44.17
2022-10-05T12:36:07.095Z,44.53
2022-10-05T12:38:39.764Z,45.37
2022-10-05T12:41:30.461Z,45.56
2022-10-05T12:44:14.475Z,46.23
2022-10-05T12:47:07.467Z,46.23
2022-10-05T12:49:57.234Z,48.17
2022-10-05T12:52:45.731Z,48.95
2022-10-05T12:55:31.918Z,50.72
2022-10-05T12:58:14.212Z,50.73
2022-10-05T13:00:58.291Z,52.01
2022-10-05T13:03:39.113Z,52.14
2022-10-05T13:06:32.719Z,52.90
2022-10-05T13:09:14.633Z,53.39
2022-10-05T13:11:52.995Z,52.38
2022-10-05T13:15:05.644Z,53.18
2022-10-05T13:17:37.733Z,54.61
2022-10-05T13:20:29.132Z,53.44
2022-10-05T13:23:09.119Z,53.55
2022-10-05T13:25:47.173Z,53.54
2022-10-05T13:28:27.454Z,54.58
2022-10-05T13:31:08.514Z,54.85
2022-10-05T13:34:09.920Z,54.96
2022-10-05T13:36:45.807Z,54.91
2022-10-05T13:39:40.479Z,54.79
2022-10-05T13:42:27.991Z,54.99
2022-10-05T13:45:22.671Z,55.55
2022-10-05T13:48:04.838Z,55.35
2022-10-05T13:50:39.833Z,54.23
2022-10-05T13:53:50.391Z,54.43
2022-10-05T13:56:50.180Z,55.98
2022-10-05T13:59:34.413Z,55.36
2022-10-05T14:02:11.247Z,55.96
2022-10-05T14:04:48.110Z,56.79
2022-10-05T14:07:35.377Z,56.42
2022-10-05T14:10:13.452Z,56.34
2022-10-05T14:12:46.802Z,57.46
2022-10-05T14:15:34.145Z,57.32
2022-10-05T14:18:29.636Z,58.40
2022-10-05T14:21:17.414Z,57.50
2022-10-05T14:23:47.106Z,58.86
2022-10-05T14:26:34.447Z,58.75
2022-10-05T14:29:05.425Z,58.03
2022-10-05T14:31:38.814Z,57.05
2022-10-05T14:34:27.261Z,56.97
2022-10-05T14:37:03.205Z,57.31
2022-10-05T14:39:36.469Z,56.70
2022-10-05T14:42:28.139Z,58.49
2022-10-05T14:45:13.118Z,58.71
2022-10-05T14:47:54.796Z,59.32
2022-10-05T14:50:30.808Z,59.42
2022-10-05T14:53:26.251Z,59.51
2022-10-05T14:55:58.404Z,59.88
2022-10-05T14:58:40.596Z,59.96
2022-10-05T15:01:15.707Z,60.28
2022-10-05T15:04:03.078Z,60.71
2022-10-05T15:06:40.237Z,61.41
2022-10-05T15:09:24.029Z,61.23
2022-10-05T15:11:57.712Z,61.83
2022-10-05T15:14:48.632Z,61.47
2022-10-05T15:17:45.548Z,61.64
2022-10-05T15:20:28.364Z,61.93
2022-10-05T15:23:00.416Z,61.15
2022-10-05T15:25:50.033Z,60.90
2022-10-05T15:28:25.238Z,59.75
2022-10-05T15:31:03.314Z,60.74
2022-10-05T15:33:39.634Z,61.25
2022-10-05T15:36:27.484Z,62.01
2022-10-05T15:39:27.992Z,62.76
2022-10-05T15:42:49.418Z,63.24
2022-10-05T15:45:38.667Z,62.74
2022-10-05T15:48:40.463Z,62.34
2022-10-05T15:51:31.106Z,63.17
2022-10-05T15:54:27.563Z,63.27
2022-10-05T15:57:26.489Z,62.28
2022-10-05T16:00:15.993Z,62.15
2022-10-05T16:03:24.258Z,63.76
2022-10-05T16:06:21.639Z,65.19
2022-10-05T16:08:56.577Z,63.80
2022-10-05T16:11:44.188Z,64.65
2022-10-05T16:14:13.725Z,64.94
2022-10-05T16:17:18.867Z,64.37
2022-10-05T16:20:10.704Z,65.29
2022-10-05T16:23:11.394Z,64.73
2022-10-05T16:26:05.020Z,65.33
2022-10-05T16:28:54.420Z,65.24
2022-10-05T16:31:38.393Z,65.34
2022-10-05T16:34:32.178Z,64.86
2022-10-05T16:37:16.151Z,65.32
2022-10-05T16:40:01.128Z,66.82
2022-10-05T16:42:57.766Z,65.67
2022-10-05T16:45:59.401Z,66.80
2022-10-05T16:48:53.136Z,66.90
2022-10-05T16:51:28.278Z,66.44
2022-10-05T16:54:21.800Z,66.51
2022-10-05T16:57:04.419Z,67.07
2022-10-05T17:00:04.733Z,67.05
2022-10-05T17:02:47.205Z,67.49
2022-10-05T17:05:42.244Z,67.46
2022-10-05T17:08:32.998Z,67.97
2022-10-05T17:11:22.174Z,68.48
2022-10-05T17:14:17.099Z,68.49
2022-10-05T17:16:52.263Z,67.82
2022-10-05T17:19:36.210Z,67.28
2022-10-05T17:22:22.609Z,68.36
2022-10-05T17:25:00.615Z,68.27
2022-10-05T17:27:33.673Z,68.81
2022-10-05T17:30:29.601Z,68.87
2022-10-05T17:33:15.185Z,68.61
2022-10-05T17:35:55.394Z,69.23
2022-10-05T17:38:45.105Z,69.77
2022-10-05T17:41:17.201Z,69.85
2022-10-05T17:44:04.927Z,69.98
2022-10-05T17:46:48.537Z,69.93
2022-10-05T17:49:35.827Z,70.70
2022-10-05T17:52:40.700Z,71.48
2022-10-05T17:55:39.461Z,71.67
2022-10-05T17:58:29.883Z,71.83
2022-10-05T18:00:58.998Z,72.27
2022-10-05T18:03:51.123Z,72.06
2022-10-05T18:06:34.196Z,72.60
2022-10-05T18:09:34.967Z,73.71
2022-10-05T18:12:19.098Z,74.04
2022-10-05T18:15:09.094Z,74.44
2022-10-05T18:17:51.949Z,75.75
2022-10-05T18:20:29.785Z,75.57
2022-10-05T18:23:07.103Z,75.83
2022-10-05T18:26:06.142Z,76.14
2022-10-05T18:28:55.736Z,76.32
2022-10-05T18:31:26.849Z,76.66
2022-10-05T18:33:55.911Z,77.00
2022-10-05T18:36:47.973Z,77.91
2022-10-05T18:39:36.388Z,77.45
2022-10-05T18:42:34.082Z,77.95
2022-10-05T18:45:23.071Z,78.37
2022-10-05T18:48:18.139Z,78.47
2022-10-05T18:51:02.336Z,79.34
2022-10-05T18:53:45.387Z,79.20
2022-10-05T18:56:22.331Z,79.88
2022-10-05T18:58:56.915Z,80.20
2022-10-05T19:01:51.555Z,79.79
2022-10-05T19:04:24.035Z,80.55
2022-10-05T19:06:58.085Z,81.52
2022-10-05T19:09:51.390Z,81.15
2022-10-05T19:12:41.772Z,81.51
2022-10-05T19:15:24.426Z,81.41
2022-10-05T19:18:19.514Z,81.19
2022-10-05T19:21:19.078Z,81.27
2022-10-05T19:24:06.057Z,80.85
2022-10-05T19:27:07.793Z,80.87
2022-10-05T19:30:26.192Z,80.97
2022-10-05T19:33:16.772Z,80.79
2022-10-05T19:35:59.504Z,81.64
2022-10-05T19:39:06.614Z,81.61
2022-10-05T19:41:45.738Z,81.76
2022-10-05T19:44:18.957Z,82.72
2022-10-05T19:47:02.688Z,82.64
2022-10-05T19:49:59.862Z,82.18
2022-10-05T19:52:41.100Z,83.17
2022-10-05T19:55:15.908Z,83.16
2022-10-05T19:57:50.086Z,83.67
2022-10-05T20:00:27.961Z,84.16
2022-10-05T20:03:24.604Z,83.56
2022-10-05T20:05:55.055Z,84.16
2022-10-05T20:08:27.678Z,84.24
2022-10-05T20:11:11.069Z,84.34
2022-10-05T20:13:46.780Z,84.21
2022-10-05T20:16:37.061Z,84.09
2022-10-05T20:19:45.260Z,84.40
2022-10-05T20:22:36.923Z,84.47
2022-10-05T20:25:19.881Z,84.55
2022-10-05T20:27:56.482Z,84.23
2022-10-05T20:30:32.295Z,84.47
2022-10-05T20:33:11.397Z,84.77
2022-10-05T20:35:40.726Z,85.14
2022-10-05T20:38:09.670Z,85.17
2022-10-05T20:40:40.027Z,85.38
2022-10-05T20:43:09.185Z,85.16
2022-10-05T20:45:44.251Z,86.48
2022-10-05T20:48:15.302Z,86.09
2022-10-05T20:50:44.737Z,86.35
2022-10-05T20:53:14.171Z,86.55
2022-10-05T20:55:44.160Z,86.78
2022-10-05T20:58:13.124Z,86.81
2022-10-05T21:01:00.568Z,86.29
2022-10-05T21:03:29.793Z,86.67
2022-10-05T21:05:58.640Z,86.57
2022-10-05T21:08:28.261Z,86.37
2022-10-05T21:10:57.425Z,86.96
2022-10-05T21:13:27.630Z,87.00
2022-10-05T21:15:57.479Z,86.55
2022-10-05T21:18:26.898Z,86.86
2022-10-05T21:20:59.952Z,86.53
2022-10-05T21:23:33.608Z,86.50
2022-10-05T21:26:03.347Z,86.55
2022-10-05T21:28:34.771Z,86.27
2022-10-05T21:31:04.088Z,86.42
2022-10-05T21:33:33.602Z,86.85
2022-10-05T21:36:03.015Z,86.97
2022-10-05T21:38:31.993Z,87.15
2022-10-05T21:41:01.328Z,87.34
2022-10-05T21:43:30.481Z,88.02
2022-10-05T21:46:00.158Z,87.94
2022-10-05T21:48:31.357Z,87.90
2022-10-05T21:51:02.239Z,87.30
2022-10-05T21:53:40.048Z,87.87
2022-10-05T21:56:15.347Z,87.04
2022-10-05T21:58:46.818Z,87.21
2022-10-05T22:01:20.144Z,87.05
2022-10-05T22:03:51.586Z,86.53
2022-10-05T22:06:20.632Z,87.09
2022-10-05T22:08:50.093Z,86.93
2022-10-05T22:11:19.835Z,87.02
2022-10-05T22:13:51.412Z,86.51
2022-10-05T22:16:22.833Z,86.24
2022-10-05T22:18:54.602Z,85.49
2022-10-05T22:21:23.723Z,86.01
2022-10-05T22:23:52.683Z,86.55
2022-10-05T22:26:24.480Z,86.63
2022-10-05T22:28:57.359Z,87.57
2022-10-05T22:31:26.860Z,87.83
2022-10-05T22:33:55.876Z,88.65
2022-10-05T22:36:25.207Z,88.45
2022-10-05T22:38:54.219Z,87.98
2022-10-05T22:41:23.318Z,87.61
2022-10-05T22:43:53.023Z,87.60
2022-10-05T22:46:23.529Z,87.34
2022-10-05T22:48:52.765Z,87.29
2022-10-05T22:51:21.780Z,86.86
2022-10-05T22:53:51.166Z,86.69
2022-10-05T22:56:20.323Z,87.14
2022-10-05T22:58:49.537Z,87.25
2022-10-05T23:01:20.757Z,87.28
2022-10-05T23:03:49.842Z,87.33
2022-10-05T23:06:21.382Z,87.55
2022-10-05T23:08:50.640Z,87.73
2022-10-05T23:11:28.056Z,87.68
2022-10-05T23:13:57.978Z,87.48
2022-10-05T23:16:29.189Z,87.44
2022-10-05T23:18:59.418Z,87.58
2022-10-05T23:21:31.913Z,87.33
2022-10-05T23:24:01.462Z,87.10
2022-10-05T23:26:31.739Z,86.90
2022-10-05T23:29:01.134Z,87.46
2022-10-05T23:31:34.580Z,87.43
2022-10-05T23:34:03.774Z,87.69
2022-10-05T23:36:33.350Z,87.39
2022-10-05T23:39:02.684Z,87.24
2022-10-05T23:41:31.691Z,87.31
2022-10-05T23:44:00.829Z,88.04
2022-10-05T23:46:29.803Z,88.11
2022-10-05T23:48:58.976Z,88.22
2022-10-05T23:51:27.884Z,88.37
2022-10-05T23:53:57.151Z,88.24
2022-10-05T23:56:26.381Z,88.59
2022-10-05T23:58:55.597Z,88.68
